createdAt,value
2024-02-26T18:31:48.755Z,7.60
2024-02-26T18:34:16.063Z,6.65
2024-02-26T18:36:44.626Z,7.55
2024-02-26T18:39:12.117Z,7.47
2024-02-26T18:41:39.172Z,6.50
2024-02-26T18:44:06.268Z,8.02
2024-02-26T18:46:35.421Z,6.82
2024-02-26T18:49:02.708Z,6.57
2024-02-26T18:51:29.852Z,6.88
2024-02-26T18:53:56.946Z,7.40
2024-02-26T18:56:24.258Z,8.85
2024-02-26T18:58:51.457Z,8.07
2024-02-26T19:01:18.542Z,8.45
2024-02-26T19:03:45.881Z,7.97
2024-02-26T19:06:17.656Z,7.35
2024-02-26T19:08:44.833Z,7.75
2024-02-26T19:11:12.083Z,7.43
2024-02-26T19:13:43.499Z,5.78
2024-02-26T19:16:10.548Z,6.43
2024-02-26T19:18:37.886Z,5.97
2024-02-26T19:21:05.471Z,5.63
2024-02-26T19:23:34.693Z,5.60
2024-02-26T19:26:01.984Z,5.93
2024-02-26T19:28:29.066Z,6.70
2024-02-26T19:30:56.155Z,7.80
2024-02-26T19:33:23.422Z,8.27
2024-02-26T19:35:50.557Z,7.13
2024-02-26T19:38:21.049Z,7.03
2024-02-26T19:40:48.374Z,7.28
2024-02-26T19:43:16.386Z,8.60
2024-02-26T19:45:43.696Z,7.45
2024-02-26T19:48:10.927Z,7.03
2024-02-26T19:50:38.761Z,8.02
2024-02-26T19:53:06.086Z,7.88
2024-02-26T19:55:34.752Z,7.82
2024-02-26T19:58:04.233Z,6.95
2024-02-26T20:00:32.013Z,7.68
2024-02-26T20:02:59.231Z,8.15
2024-02-26T20:05:26.417Z,8.52
2024-02-26T20:07:53.569Z,7.88
2024-02-26T20:10:20.673Z,7.50
2024-02-26T20:12:47.898Z,7.60
2024-02-26T20:15:15.062Z,7.68
2024-02-26T20:17:42.224Z,7.25
2024-02-26T20:20:09.700Z,6.88
2024-02-26T20:27:11.522Z,7.43
2024-02-26T20:29:39.877Z,6.78
2024-02-26T20:32:07.320Z,6.15
2024-02-26T20:34:34.787Z,6.80
2024-02-26T20:37:03.173Z,7.82
2024-02-26T20:39:30.527Z,8.27
2024-02-26T20:41:57.883Z,11.05
2024-02-26T20:44:24.983Z,10.35
2024-02-26T20:46:56.757Z,10.05
2024-02-26T20:49:24.044Z,9.70
2024-02-26T20:51:51.171Z,10.70
2024-02-26T20:54:18.809Z,11.75
2024-02-26T20:56:46.939Z,12.00
2024-02-26T20:59:14.348Z,11.15
2024-02-26T21:01:41.487Z,12.10
2024-02-26T21:04:09.006Z,12.10
2024-02-26T21:06:36.950Z,11.57
2024-02-26T21:09:10.130Z,11.30
2024-02-26T21:11:37.480Z,10.98
2024-02-26T21:14:05.286Z,10.27
2024-02-26T21:16:32.366Z,10.63
2024-02-26T21:19:00.727Z,10.30
2024-02-26T21:21:29.587Z,9.90
2024-02-26T21:23:58.321Z,9.90
2024-02-26T21:26:26.642Z,9.85
2024-02-26T21:28:53.885Z,10.32
2024-02-26T21:31:21.053Z,10.20
2024-02-26T21:33:48.784Z,9.73
2024-02-26T21:36:16.173Z,9.52
2024-02-26T21:38:50.181Z,8.73
2024-02-26T21:41:19.936Z,8.70
2024-02-26T21:43:51.115Z,8.80
2024-02-26T21:48:45.355Z,9.25
2024-02-26T21:51:12.803Z,7.68
2024-02-26T21:53:40.198Z,8.60
2024-02-26T21:56:08.573Z,8.52
2024-02-26T21:58:36.185Z,8.43
2024-02-26T22:01:03.769Z,7.93
2024-02-26T22:03:31.175Z,9.07
2024-02-26T22:05:58.310Z,8.10
2024-02-26T22:08:25.687Z,7.95
2024-02-26T22:10:54.637Z,8.07
2024-02-26T22:13:22.304Z,8.80
2024-02-26T22:15:49.432Z,9.07
2024-02-26T22:18:16.685Z,8.40
2024-02-26T22:20:44.905Z,8.48
2024-02-26T22:23:11.977Z,7.85
2024-02-26T22:25:39.437Z,7.75
2024-02-26T22:28:06.518Z,8.27
2024-02-26T22:30:34.153Z,7.97
2024-02-26T22:33:01.554Z,8.93
2024-02-26T22:35:28.740Z,8.30
2024-02-26T22:37:55.816Z,7.55
2024-02-26T22:40:23.010Z,8.90
2024-02-26T22:42:56.627Z,7.28
2024-02-26T22:45:25.544Z,5.80
2024-02-26T22:47:55.002Z,6.70
2024-02-26T22:50:22.223Z,6.22
2024-02-26T22:52:54.731Z,6.03
2024-02-26T22:55:25.259Z,6.50
2024-02-26T22:57:56.443Z,6.97
2024-02-26T23:00:33.710Z,6.75
2024-02-26T23:03:01.694Z,6.63
2024-02-26T23:05:29.163Z,5.55
2024-02-26T23:07:56.987Z,5.97
2024-02-26T23:10:24.702Z,5.85
2024-02-26T23:12:55.161Z,5.60
2024-02-26T23:15:22.776Z,6.03
2024-02-26T23:17:55.397Z,6.38
2024-02-26T23:20:23.364Z,5.25
2024-02-26T23:22:55.451Z,4.85
2024-02-26T23:25:22.576Z,5.10
2024-02-26T23:27:52.475Z,5.05
2024-02-26T23:30:20.843Z,5.50
2024-02-26T23:32:48.250Z,5.18
2024-02-26T23:35:15.386Z,5.47
2024-02-26T23:37:42.443Z,5.75
2024-02-26T23:40:09.494Z,5.72
2024-02-26T23:42:37.960Z,5.28
2024-02-26T23:45:06.488Z,5.47
2024-02-26T23:47:34.224Z,5.40
2024-02-26T23:50:01.313Z,5.28
2024-02-26T23:52:28.384Z,5.57
2024-02-26T23:54:55.515Z,5.32
2024-02-26T23:57:22.608Z,4.70
2024-02-26T23:59:49.791Z,4.65
